createdAt,value
2023-04-08T00:01:16.762Z,98985.10
2023-04-08T00:02:58.623Z,98987.11
2023-04-08T00:04:52.828Z,98984.59
2023-04-08T00:06:39.077Z,98989.27
2023-04-08T00:08:19.606Z,98987.54
2023-04-08T00:09:45.143Z,98987.56
2023-04-08T00:11:19.248Z,98986.58
2023-04-08T00:13:05.454Z,98986.70
2023-04-08T00:14:41.506Z,98987.77
2023-04-08T00:16:26.847Z,98991.45
2023-04-08T00:18:15.978Z,98993.80
2023-04-08T00:20:02.857Z,98994.95
2023-04-08T00:21:48.921Z,98991.03
2023-04-08T00:23:23.794Z,98993.48
2023-04-08T00:25:12.608Z,98989.01
2023-04-08T00:26:46.447Z,98987.98
2023-04-08T00:28:21.175Z,98991.51
2023-04-08T00:30:11.954Z,98992.50
2023-04-08T00:31:45.731Z,98995.14
2023-04-08T00:33:30.963Z,98994.22
2023-04-08T00:35:12.311Z,98996.46
2023-04-08T00:36:53.548Z,98997.83
2023-04-08T00:38:27.573Z,98990.52
2023-04-08T00:40:09.742Z,98994.84
2023-04-08T00:42:03.055Z,98996.14
2023-04-08T00:43:48.171Z,98996.61
2023-04-08T00:45:14.544Z,98989.60
2023-04-08T00:46:49.505Z,98992.61
2023-04-08T00:48:23.104Z,98993.02
2023-04-08T00:50:16.731Z,98994.30
2023-04-08T00:52:02.310Z,98991.75
2023-04-08T00:53:43.669Z,98992.86
2023-04-08T00:55:20.038Z,98996.06
2023-04-08T00:57:14.735Z,98994.58
2023-04-08T00:58:43.958Z,98998.61
2023-04-08T01:00:29.596Z,98998.44
2023-04-08T01:02:14.858Z,99000.33
2023-04-08T01:04:09.832Z,99000.15
2023-04-08T01:05:56.447Z,99000.58
2023-04-08T01:07:42.077Z,98999.58
2023-04-08T01:09:27.241Z,99004.90
2023-04-08T01:11:20.911Z,99004.67
2023-04-08T01:12:49.753Z,99010.30
2023-04-08T01:14:23.524Z,99011.96
2023-04-08T01:16:01.154Z,99004.27
2023-04-08T01:17:34.909Z,99009.58
2023-04-08T01:19:03.732Z,99005.80
2023-04-08T01:20:33.450Z,99003.06
2023-04-08T01:22:09.453Z,99005.83
2023-04-08T01:23:54.455Z,99006.98
2023-04-08T01:25:40.383Z,99011.25
2023-04-08T01:27:25.757Z,99008.95
2023-04-08T01:29:10.689Z,99011.87
2023-04-08T01:30:44.106Z,99012.58
2023-04-08T01:32:29.458Z,99009.52
2023-04-08T01:34:07.094Z,99016.22
2023-04-08T01:36:00.919Z,99018.16
2023-04-08T01:37:37.047Z,99016.93
2023-04-08T01:39:05.848Z,99021.82
2023-04-08T01:40:52.152Z,99022.28
2023-04-08T01:42:37.727Z,99022.91
2023-04-08T01:44:13.500Z,99026.23
2023-04-08T01:46:07.097Z,99025.60
2023-04-08T01:47:52.588Z,99024.20
2023-04-08T01:49:28.558Z,99027.34
2023-04-08T01:51:13.548Z,99025.48
2023-04-08T01:52:54.349Z,99032.34
2023-04-08T01:54:16.437Z,99032.61
2023-04-08T01:56:00.622Z,99034.78
2023-04-08T01:57:37.416Z,99031.77
2023-04-08T01:59:10.961Z,99029.55
2023-04-08T02:00:44.155Z,99025.59
2023-04-08T02:02:11.200Z,99033.67
2023-04-08T02:03:56.360Z,99031.11
2023-04-08T02:05:30.664Z,99033.17
2023-04-08T02:07:11.567Z,99035.75
2023-04-08T02:08:44.811Z,99035.60
2023-04-08T02:10:18.494Z,99030.99
2023-04-08T02:12:12.857Z,99034.30
2023-04-08T02:14:00.377Z,99021.77
2023-04-08T02:15:54.312Z,99035.30
2023-04-08T02:17:49.804Z,99037.48
2023-04-08T02:19:35.467Z,99042.13
2023-04-08T02:21:12.428Z,99044.27
2023-04-08T02:22:57.382Z,99041.30
2023-04-08T02:24:31.097Z,99044.39
2023-04-08T02:26:15.815Z,99047.10
2023-04-08T02:27:49.327Z,99045.84
2023-04-08T02:29:34.966Z,99048.73
2023-04-08T02:31:12.416Z,99048.16
2023-04-08T02:33:06.137Z,99054.95
2023-04-08T02:34:56.764Z,99050.65
2023-04-08T02:36:42.945Z,99055.13
2023-04-08T02:38:18.665Z,99057.13
2023-04-08T02:39:51.855Z,99058.20
2023-04-08T02:41:37.299Z,99058.77
2023-04-08T02:43:12.801Z,99057.57
2023-04-08T02:44:58.224Z,99061.34
2023-04-08T02:46:31.480Z,99062.44
2023-04-08T02:48:16.195Z,99059.23
2023-04-08T02:50:06.468Z,99063.50
2023-04-08T02:51:47.184Z,99058.79
2023-04-08T02:53:10.685Z,99063.34
2023-04-08T02:54:51.528Z,99066.94
2023-04-08T02:56:20.428Z,99067.43
2023-04-08T02:57:53.827Z,99069.95
2023-04-08T02:59:38.962Z,99062.10
2023-04-08T03:01:31.721Z,99074.47
2023-04-08T03:03:16.587Z,99077.73
2023-04-08T03:04:40.647Z,99080.88
2023-04-08T03:06:24.197Z,99086.52
2023-04-08T03:07:57.120Z,99087.45
2023-04-08T03:09:42.536Z,99089.39
2023-04-08T03:11:11.641Z,99090.72
2023-04-08T03:12:47.842Z,99088.98
2023-04-08T03:14:23.418Z,99094.23
2023-04-08T03:16:16.534Z,99098.66
2023-04-08T03:17:51.763Z,99099.19
2023-04-08T03:19:25.393Z,99097.96
2023-04-08T03:23:12.300Z,99104.08
2023-04-08T03:25:05.673Z,99100.40
2023-04-08T03:26:39.184Z,99100.41
2023-04-08T03:28:11.024Z,99105.79
2023-04-08T03:29:52.631Z,99105.98
2023-04-08T03:31:35.846Z,99103.42
2023-04-08T03:33:08.796Z,99106.76
2023-04-08T03:35:01.757Z,99111.12
2023-04-08T03:36:50.068Z,99111.17
2023-04-08T03:38:35.506Z,99112.23
2023-04-08T03:40:20.322Z,99111.13
2023-04-08T03:41:44.845Z,99118.77
2023-04-08T03:43:30.422Z,99119.88
2023-04-08T03:44:59.608Z,99119.52
2023-04-08T03:46:45.226Z,99120.59
2023-04-08T03:48:30.216Z,99122.20
2023-04-08T03:50:03.291Z,99122.02
2023-04-08T03:51:44.385Z,99118.30
2023-04-08T03:53:29.513Z,99126.97
2023-04-08T03:55:04.826Z,99130.95
2023-04-08T03:56:27.083Z,99131.92
2023-04-08T03:58:00.165Z,99139.71
2023-04-08T03:59:33.866Z,99137.02
2023-04-08T04:01:11.614Z,99137.77
2023-04-08T04:02:58.801Z,99138.52
2023-04-08T04:04:48.838Z,99139.52
2023-04-08T04:06:33.781Z,99141.48
2023-04-08T04:08:15.268Z,99141.00
2023-04-08T04:10:01.028Z,99145.52
2023-04-08T04:11:34.598Z,99146.23
2023-04-08T04:13:21.785Z,99150.70
2023-04-08T04:14:57.067Z,99158.88
2023-04-08T04:16:42.487Z,99157.79
2023-04-08T04:18:23.363Z,99162.95
2023-04-08T04:20:11.605Z,99160.57
2023-04-08T04:21:45.599Z,99164.13
2023-04-08T04:23:21.425Z,99163.86
2023-04-08T04:24:42.933Z,99162.78
2023-04-08T04:26:32.781Z,99168.09
2023-04-08T04:28:16.241Z,99169.38
2023-04-08T04:29:57.146Z,99168.02
2023-04-08T04:31:19.449Z,99168.37
2023-04-08T04:33:04.214Z,99175.16
2023-04-08T04:34:53.528Z,99176.05
2023-04-08T04:36:39.101Z,99177.83
2023-04-08T04:38:14.205Z,99181.59
2023-04-08T04:40:07.577Z,99179.81
2023-04-08T04:42:02.802Z,99188.14
2023-04-08T04:43:48.205Z,99176.23
2023-04-08T04:45:24.314Z,99194.79
2023-04-08T04:47:00.232Z,99197.73
2023-04-08T04:48:29.385Z,99197.34
2023-04-08T04:50:17.832Z,99198.63
2023-04-08T04:51:58.224Z,99196.39
2023-04-08T04:53:33.999Z,99194.09
2023-04-08T04:55:07.251Z,99189.50
2023-04-08T04:56:34.597Z,99192.45
2023-04-08T04:58:09.991Z,99189.19
2023-04-08T04:59:55.431Z,99192.92
2023-04-08T05:01:29.103Z,99189.75
2023-04-08T05:03:10.872Z,99189.89
2023-04-08T05:04:56.171Z,99186.23
2023-04-08T05:06:32.989Z,99184.57
2023-04-08T05:08:13.224Z,99183.76
2023-04-08T05:09:54.346Z,99186.61
2023-04-08T05:11:28.061Z,99187.71
2023-04-08T05:13:01.277Z,99190.95
2023-04-08T05:14:27.907Z,99188.34
2023-04-08T05:16:08.139Z,99191.77
2023-04-08T05:17:42.093Z,99192.11
2023-04-08T05:19:26.834Z,99194.00
2023-04-08T05:21:00.066Z,99190.04
2023-04-08T05:22:45.264Z,99193.74
2023-04-08T05:24:18.622Z,99194.88
2023-04-08T05:26:03.744Z,99190.27
2023-04-08T05:27:40.731Z,99191.74
2023-04-08T05:29:25.626Z,99191.32
2023-04-08T05:30:58.955Z,99199.17
2023-04-08T05:32:39.920Z,99197.18
2023-04-08T05:34:25.119Z,99195.27
2023-04-08T05:36:08.588Z,99197.70
2023-04-08T05:37:44.168Z,99192.54
2023-04-08T05:39:20.005Z,99195.27
2023-04-08T05:41:04.672Z,99193.27
2023-04-08T05:42:37.843Z,99193.93
2023-04-08T05:44:01.657Z,99199.77
2023-04-08T05:45:35.635Z,99199.04
2023-04-08T05:47:16.318Z,99196.75
2023-04-08T05:49:01.273Z,99198.46
2023-04-08T05:50:46.767Z,99197.33
2023-04-08T05:52:31.862Z,99194.77
2023-04-08T05:54:07.445Z,99201.41
2023-04-08T05:55:41.223Z,99195.17
2023-04-08T05:57:16.731Z,99197.09
2023-04-08T05:58:53.824Z,99201.79
2023-04-08T06:00:16.774Z,99198.91
2023-04-08T06:02:01.706Z,99197.89
2023-04-08T06:03:47.670Z,99205.48
2023-04-08T06:05:23.478Z,99205.52
2023-04-08T06:06:57.746Z,99205.66
2023-04-08T06:08:31.603Z,99205.83
2023-04-08T06:10:20.305Z,99205.28
2023-04-08T06:11:58.213Z,99209.02
2023-04-08T06:13:43.834Z,99209.11
2023-04-08T06:15:19.208Z,99214.05
2023-04-08T06:16:55.735Z,99214.58
2023-04-08T06:18:41.123Z,99214.11
2023-04-08T06:20:02.716Z,99225.52
2023-04-08T06:21:38.446Z,99216.30
2023-04-08T06:22:59.623Z,99218.52
2023-04-08T06:24:35.437Z,99220.58
2023-04-08T06:26:08.837Z,99224.65
2023-04-08T06:27:51.328Z,99222.90
2023-04-08T06:29:28.028Z,99229.41
2023-04-08T06:31:01.110Z,99233.73
2023-04-08T06:32:34.694Z,99236.73
2023-04-08T06:34:19.593Z,99234.91
2023-04-08T06:36:04.631Z,99238.46
2023-04-08T06:37:45.897Z,99241.60
2023-04-08T06:39:31.149Z,99232.95
2023-04-08T06:41:01.845Z,99238.37
2023-04-08T06:42:47.689Z,99237.19
2023-04-08T06:44:50.537Z,99235.21
2023-04-08T06:46:31.639Z,99235.78
2023-04-08T06:48:25.005Z,99238.23
2023-04-08T06:50:05.714Z,99242.33
2023-04-08T06:51:39.237Z,99242.67
2023-04-08T06:53:01.274Z,99242.64
2023-04-08T06:54:54.876Z,99244.36
2023-04-08T06:56:30.839Z,99241.59
2023-04-08T06:58:02.311Z,99244.67
2023-04-08T06:59:36.294Z,99245.86
2023-04-08T07:01:16.750Z,99250.70
2023-04-08T07:02:53.538Z,99253.75
2023-04-08T07:04:29.617Z,99255.81
2023-04-08T07:06:17.965Z,99255.70
2023-04-08T07:08:00.021Z,99256.61
2023-04-08T07:09:34.692Z,99256.43
2023-04-08T07:11:16.246Z,99258.33
2023-04-08T07:12:49.819Z,99265.48
2023-04-08T07:14:34.895Z,99266.33
2023-04-08T07:16:18.817Z,99272.98
2023-04-08T07:18:03.929Z,99273.10
2023-04-08T07:19:52.364Z,99275.10
2023-04-08T07:21:33.063Z,99280.98
2023-04-08T07:23:04.395Z,99284.27
2023-04-08T07:24:49.715Z,99284.73
2023-04-08T07:26:11.473Z,99286.84
2023-04-08T07:27:44.651Z,99291.89
2023-04-08T07:29:29.934Z,99289.88
2023-04-08T07:31:15.073Z,99291.86
2023-04-08T07:33:08.880Z,99292.48
2023-04-08T07:34:42.415Z,99295.54
2023-04-08T07:36:26.497Z,99291.02
2023-04-08T07:38:11.390Z,99292.13
2023-04-08T07:39:56.608Z,99292.61
2023-04-08T07:41:26.211Z,99287.16
2023-04-08T07:43:10.981Z,99292.59
2023-04-08T07:45:04.795Z,99298.39
2023-04-08T07:46:41.190Z,99297.70
2023-04-08T07:48:22.201Z,99293.50
2023-04-08T07:49:56.772Z,99286.00
2023-04-08T07:51:25.825Z,99302.94
2023-04-08T07:52:57.443Z,99296.20
2023-04-08T07:54:43.113Z,99300.33
2023-04-08T07:56:23.905Z,99292.69
2023-04-08T07:57:57.916Z,99295.88
2023-04-08T07:59:32.240Z,99294.20
2023-04-08T08:01:19.117Z,99300.08
2023-04-08T08:02:55.076Z,99302.29
2023-04-08T08:04:40.798Z,99301.60
2023-04-08T08:06:19.163Z,99299.13
2023-04-08T08:08:04.430Z,99299.22
2023-04-08T08:09:45.517Z,99304.40
2023-04-08T08:11:07.149Z,99297.76
2023-04-08T08:12:45.208Z,99300.98
2023-04-08T08:14:30.749Z,99302.63
2023-04-08T08:16:11.255Z,99295.57
2023-04-08T08:17:45.476Z,99300.00
2023-04-08T08:19:18.983Z,99297.48
2023-04-08T08:20:43.567Z,99298.65
2023-04-08T08:22:19.271Z,99293.55
2023-04-08T08:23:52.591Z,99294.63
2023-04-08T08:25:28.473Z,99297.64
2023-04-08T08:27:02.838Z,99299.45
2023-04-08T08:28:43.831Z,99294.52
2023-04-08T08:30:28.985Z,99291.44
2023-04-08T08:32:02.372Z,99293.84
2023-04-08T08:33:38.706Z,99296.46
2023-04-08T08:35:23.751Z,99299.46
2023-04-08T08:37:09.012Z,99297.40
2023-04-08T08:38:44.753Z,99300.63
2023-04-08T08:40:26.537Z,99302.30
2023-04-08T08:42:09.732Z,99303.85
2023-04-08T08:43:55.470Z,99303.12
2023-04-08T08:45:29.319Z,99311.40
2023-04-08T08:47:04.369Z,99313.93
2023-04-08T08:48:50.546Z,99316.02
2023-04-08T08:50:35.476Z,99316.98
2023-04-08T08:52:22.991Z,99315.23
2023-04-08T08:54:08.091Z,99314.96
2023-04-08T08:57:34.109Z,99322.60
2023-04-08T08:59:02.666Z,99322.85
2023-04-08T09:00:48.180Z,99323.97
2023-04-08T09:02:33.930Z,99327.83
2023-04-08T09:04:07.617Z,99331.27
2023-04-08T09:05:43.911Z,99330.35
2023-04-08T09:07:27.627Z,99331.58
2023-04-08T09:09:12.266Z,99331.05
2023-04-08T09:10:46.260Z,99334.36
2023-04-08T09:12:31.471Z,99339.17
2023-04-08T09:14:07.591Z,99338.00
2023-04-08T09:15:41.455Z,99339.31
2023-04-08T09:17:05.230Z,99338.27
2023-04-08T09:18:42.089Z,99339.30
2023-04-08T09:20:15.419Z,99342.73
2023-04-08T09:21:56.313Z,99343.61
2023-04-08T09:23:29.974Z,99335.27
2023-04-08T09:25:05.171Z,99339.02
2023-04-08T09:26:38.705Z,99341.95
2023-04-08T09:28:23.544Z,99344.00
2023-04-08T09:29:56.982Z,99346.61
2023-04-08T09:31:19.345Z,99344.16
2023-04-08T09:33:04.425Z,99344.42
2023-04-08T09:34:37.966Z,99344.10
2023-04-08T09:36:19.858Z,99351.22
2023-04-08T09:37:55.376Z,99348.08
2023-04-08T09:39:24.557Z,99344.02
2023-04-08T09:41:09.527Z,99343.15
2023-04-08T09:42:55.617Z,99342.19
2023-04-08T09:44:42.123Z,99340.63
2023-04-08T09:46:24.046Z,99341.45
2023-04-08T09:47:50.674Z,99340.61
2023-04-08T09:49:24.317Z,99340.66
2023-04-08T09:50:57.714Z,99342.73
2023-04-08T09:52:43.805Z,99338.02
2023-04-08T09:54:17.116Z,99340.80
2023-04-08T09:55:48.177Z,99340.33
2023-04-08T09:57:14.111Z,99344.01
2023-04-08T09:59:00.980Z,99341.80
2023-04-08T10:00:34.590Z,99340.53
2023-04-08T10:02:19.445Z,99336.61
2023-04-08T10:04:00.299Z,99335.22
2023-04-08T10:05:22.350Z,99341.92
2023-04-08T10:07:13.228Z,99339.88
2023-04-08T10:08:36.005Z,99336.04
2023-04-08T10:10:20.737Z,99336.67
2023-04-08T10:11:56.556Z,99332.45
2023-04-08T10:13:23.439Z,99333.04
2023-04-08T10:15:04.071Z,99337.17
2023-04-08T10:16:35.728Z,99337.05
2023-04-08T10:18:11.896Z,99333.66
2023-04-08T10:19:44.737Z,99337.02
2023-04-08T10:21:29.509Z,99334.77
2023-04-08T10:23:15.249Z,99335.10
2023-04-08T10:27:18.905Z,99330.92
2023-04-08T10:29:08.719Z,99334.92
2023-04-08T10:30:54.109Z,99321.30
2023-04-08T10:32:36.430Z,99332.60
2023-04-08T10:34:21.460Z,99331.46
2023-04-08T10:35:55.334Z,99330.77
2023-04-08T10:37:41.714Z,99323.33
2023-04-08T10:39:35.739Z,99327.65
2023-04-08T10:41:23.505Z,99330.21
2023-04-08T10:42:54.785Z,99336.30
2023-04-08T10:44:23.932Z,99325.15
2023-04-08T10:46:18.010Z,99327.20
2023-04-08T10:48:03.539Z,99318.42
2023-04-08T10:49:57.364Z,99318.25
2023-04-08T10:51:44.383Z,99320.75
2023-04-08T10:53:29.587Z,99326.71
2023-04-08T10:55:01.142Z,99324.10
2023-04-08T10:56:46.346Z,99310.99
2023-04-08T10:58:31.641Z,99323.23
2023-04-08T11:00:25.036Z,99322.17
2023-04-08T11:02:15.172Z,99325.92
2023-04-08T11:03:49.028Z,99312.84
2023-04-08T11:05:35.293Z,99325.33
2023-04-08T11:07:09.384Z,99321.27
2023-04-08T11:08:54.350Z,99323.91
2023-04-08T11:10:39.429Z,99327.98
2023-04-08T11:12:03.448Z,99324.94
2023-04-08T11:13:51.582Z,99326.20
2023-04-08T11:15:37.628Z,99331.84
2023-04-08T11:17:20.741Z,99329.89
2023-04-08T11:18:54.124Z,99336.86
2023-04-08T11:20:37.027Z,99335.15
2023-04-08T11:22:29.276Z,99334.71
2023-04-08T11:24:09.831Z,99322.91
2023-04-08T11:25:43.430Z,99334.27
2023-04-08T11:27:16.853Z,99332.86
2023-04-08T11:28:51.762Z,99331.88
2023-04-08T11:30:36.609Z,99328.73
2023-04-08T11:32:26.810Z,99329.27
2023-04-08T11:34:00.048Z,99330.54
2023-04-08T11:35:33.619Z,99330.69
2023-04-08T11:37:27.918Z,99331.33
2023-04-08T11:39:05.314Z,99332.23
2023-04-08T11:40:50.698Z,99329.53
2023-04-08T11:42:26.381Z,99330.41
2023-04-08T11:43:57.271Z,99333.77
2023-04-08T11:45:44.499Z,99330.60
2023-04-08T11:47:26.201Z,99334.10
2023-04-08T11:48:59.446Z,99333.00
2023-04-08T11:50:35.396Z,99323.10
2023-04-08T11:52:06.460Z,99327.73
2023-04-08T11:53:40.005Z,99334.27
2023-04-08T11:55:23.538Z,99331.80
2023-04-08T11:57:09.900Z,99326.27
2023-04-08T11:58:57.240Z,99323.71
2023-04-08T12:00:42.859Z,99314.73
2023-04-08T12:02:27.552Z,99323.41
2023-04-08T12:04:04.533Z,99318.41
2023-04-08T12:05:38.230Z,99321.70
2023-04-08T12:07:14.214Z,99322.02
2023-04-08T12:09:07.712Z,99323.71
2023-04-08T12:10:35.087Z,99320.90
2023-04-08T12:12:09.024Z,99320.06
2023-04-08T12:13:54.492Z,99315.90
2023-04-08T12:15:30.074Z,99323.47
2023-04-08T12:17:14.462Z,99322.36
2023-04-08T12:19:08.810Z,99324.53
2023-04-08T12:20:54.792Z,99322.82
2023-04-08T12:22:40.201Z,99321.38
2023-04-08T12:24:09.214Z,99314.85
2023-04-08T12:25:56.115Z,99313.24
2023-04-08T12:27:41.906Z,99316.42
2023-04-08T12:29:15.297Z,99314.97
2023-04-08T12:30:49.045Z,99314.05
2023-04-08T12:32:34.053Z,99311.55
2023-04-08T12:33:55.830Z,99313.77
2023-04-08T12:35:37.083Z,99314.84
2023-04-08T12:37:12.582Z,99308.14
2023-04-08T12:38:37.472Z,99314.02
2023-04-08T12:40:22.661Z,99309.64
2023-04-08T12:42:10.750Z,99311.29
2023-04-08T12:43:35.417Z,99310.66
2023-04-08T12:45:11.221Z,99310.77
2023-04-08T12:46:50.282Z,99309.15
2023-04-08T12:48:14.107Z,99309.32
2023-04-08T12:49:49.805Z,99305.44
2023-04-08T12:51:26.807Z,99306.05
2023-04-08T12:52:50.827Z,99307.75
2023-04-08T12:54:20.856Z,99305.20
2023-04-08T12:56:10.145Z,99303.36
2023-04-08T12:57:34.619Z,99300.90
2023-04-08T12:59:00.907Z,99305.55
2023-04-08T13:00:46.220Z,99297.25
2023-04-08T13:02:31.912Z,99300.13
2023-04-08T13:04:08.445Z,99297.21
2023-04-08T13:05:43.088Z,99302.56
2023-04-08T13:07:24.498Z,99300.13
2023-04-08T13:08:57.712Z,99288.96
2023-04-08T13:10:43.124Z,99293.25
2023-04-08T13:12:04.996Z,99290.94
2023-04-08T13:13:35.005Z,99293.14
2023-04-08T13:15:08.292Z,99290.16
2023-04-08T13:16:42.166Z,99285.97
2023-04-08T13:18:04.935Z,99289.95
2023-04-08T13:19:49.871Z,99292.02
2023-04-08T13:21:21.569Z,99293.54
2023-04-08T13:22:54.906Z,99292.60
2023-04-08T13:24:21.263Z,99292.30
2023-04-08T13:25:42.842Z,99294.23
2023-04-08T13:27:16.044Z,99285.36
2023-04-08T13:28:53.765Z,99290.30
2023-04-08T13:30:30.474Z,99288.60
2023-04-08T13:32:15.796Z,99287.22
2023-04-08T13:33:42.716Z,99284.42
2023-04-08T13:35:27.934Z,99286.48
2023-04-08T13:36:59.484Z,99286.65
2023-04-08T13:38:45.207Z,99282.17
2023-04-08T13:40:18.633Z,99286.02
2023-04-08T13:41:52.810Z,99280.71
2023-04-08T13:43:17.217Z,99282.61
2023-04-08T13:44:50.879Z,99280.52
2023-04-08T13:46:17.147Z,99281.91
2023-04-08T13:47:39.474Z,99280.81
2023-04-08T13:49:16.791Z,99281.67
2023-04-08T13:50:50.180Z,99273.71
2023-04-08T13:52:26.115Z,99279.69
2023-04-08T13:53:59.550Z,99279.48
2023-04-08T13:55:32.942Z,99279.05
2023-04-08T13:57:17.538Z,99280.92
2023-04-08T13:58:49.965Z,99274.72
2023-04-08T14:00:28.504Z,99281.45
2023-04-08T14:02:13.633Z,99280.18
2023-04-08T14:04:07.363Z,99279.04
2023-04-08T14:05:38.842Z,99273.84
2023-04-08T14:07:19.202Z,99273.68
2023-04-08T14:08:43.353Z,99270.74
2023-04-08T14:10:05.098Z,99273.64
2023-04-08T14:11:46.003Z,99267.18
2023-04-08T14:13:21.480Z,99269.42
2023-04-08T14:14:55.427Z,99268.30
2023-04-08T14:16:41.658Z,99265.80
2023-04-08T14:18:17.586Z,99269.09
2023-04-08T14:19:41.868Z,99269.48
2023-04-08T14:21:26.800Z,99272.60
2023-04-08T14:23:00.591Z,99270.23
2023-04-08T14:24:24.873Z,99268.58
2023-04-08T14:26:10.042Z,99257.55
2023-04-08T14:27:58.858Z,99261.04
2023-04-08T14:29:32.251Z,99267.45
2023-04-08T14:31:06.144Z,99257.27
2023-04-08T14:32:52.046Z,99257.82
2023-04-08T14:34:25.735Z,99258.20
2023-04-08T14:35:56.823Z,99259.84
2023-04-08T14:37:33.515Z,99262.14
2023-04-08T14:39:06.940Z,99263.55
2023-04-08T14:40:52.267Z,99260.27
2023-04-08T14:42:37.266Z,99257.30
2023-04-08T14:44:12.490Z,99253.21
2023-04-08T14:45:55.787Z,99249.27
2023-04-08T14:47:19.868Z,99247.91
2023-04-08T14:49:04.714Z,99252.74
2023-04-08T14:50:30.785Z,99253.89
2023-04-08T14:52:15.905Z,99254.42
2023-04-08T14:53:49.813Z,99253.04
2023-04-08T14:55:25.399Z,99251.63
2023-04-08T14:57:03.998Z,99253.50
2023-04-08T14:58:39.924Z,99253.23
2023-04-08T15:00:12.163Z,99251.80
2023-04-08T15:01:45.907Z,99235.90
2023-04-08T15:03:11.144Z,99248.52
2023-04-08T15:05:01.100Z,99251.45
2023-04-08T15:06:38.991Z,99251.39
2023-04-08T15:08:14.977Z,99251.22
2023-04-08T15:09:48.522Z,99249.97
2023-04-08T15:11:10.569Z,99252.52
2023-04-08T15:12:56.791Z,99251.63
2023-04-08T15:14:21.070Z,99253.73
2023-04-08T15:15:43.321Z,99249.21
2023-04-08T15:17:12.527Z,99252.36
2023-04-08T15:18:41.916Z,99251.59
2023-04-08T15:20:22.829Z,99256.88
2023-04-08T15:22:09.117Z,99255.10
2023-04-08T15:23:44.885Z,99258.80
2023-04-08T15:25:30.335Z,99257.26
2023-04-08T15:27:06.927Z,99257.67
2023-04-08T15:28:44.244Z,99258.23
2023-04-08T15:30:29.404Z,99260.27
2023-04-08T15:32:05.465Z,99262.55
2023-04-08T15:33:41.162Z,99251.23
2023-04-08T15:35:10.060Z,99261.88
2023-04-08T15:37:06.785Z,99260.55
2023-04-08T15:38:49.840Z,99256.95
2023-04-08T15:40:35.067Z,99247.05
2023-04-08T15:42:14.592Z,99258.06
2023-04-08T15:43:48.604Z,99260.27
2023-04-08T15:45:24.264Z,99252.31
2023-04-08T15:47:05.327Z,99250.46
2023-04-08T15:48:39.162Z,99262.82
2023-04-08T15:50:14.845Z,99265.27
2023-04-08T15:51:51.128Z,99262.08
2023-04-08T15:53:31.631Z,99267.88
2023-04-08T15:55:02.676Z,99268.30
2023-04-08T15:56:29.432Z,99266.84
2023-04-08T15:58:05.607Z,99270.09
2023-04-08T15:59:39.783Z,99271.19
2023-04-08T16:01:13.530Z,99271.09
2023-04-08T16:02:47.533Z,99260.80
2023-04-08T16:04:21.669Z,99267.37
2023-04-08T16:06:07.822Z,99270.56
2023-04-08T16:07:49.156Z,99242.42
2023-04-08T16:09:31.789Z,99273.12
2023-04-08T16:11:18.032Z,99274.80
2023-04-08T16:13:03.246Z,99278.90
2023-04-08T16:14:36.565Z,99278.73
2023-04-08T16:16:12.259Z,99263.90
2023-04-08T16:17:45.854Z,99275.58
2023-04-08T16:19:14.833Z,99272.41
2023-04-08T16:20:37.143Z,99275.70
2023-04-08T16:22:21.583Z,99275.84
2023-04-08T16:23:54.975Z,99274.42
2023-04-08T16:25:40.231Z,99278.86
2023-04-08T16:29:23.142Z,99273.90
2023-04-08T16:30:51.905Z,99274.08
2023-04-08T16:32:38.806Z,99277.75
2023-04-08T16:34:05.123Z,99276.42
2023-04-08T16:35:50.527Z,99273.39
2023-04-08T16:37:35.732Z,99278.49
2023-04-08T16:39:29.798Z,99277.02
2023-04-08T16:41:22.779Z,99280.64
2023-04-08T16:43:16.308Z,99265.48
2023-04-08T16:45:08.206Z,99280.98
2023-04-08T16:46:53.603Z,99279.48
2023-04-08T16:48:47.387Z,99285.08
2023-04-08T16:50:32.587Z,99283.53
2023-04-08T16:52:08.876Z,99278.77
2023-04-08T16:54:02.221Z,99283.98
2023-04-08T16:55:35.902Z,99285.98
2023-04-08T16:57:09.335Z,99286.72
2023-04-08T16:58:51.251Z,99283.95
2023-04-08T17:00:34.685Z,99286.41
2023-04-08T17:02:08.189Z,99288.30
2023-04-08T17:03:49.948Z,99289.25
2023-04-08T17:05:35.397Z,99296.69
2023-04-08T17:07:09.148Z,99295.30
2023-04-08T17:08:43.598Z,99296.73
2023-04-08T17:10:28.949Z,99296.80
2023-04-08T17:11:55.560Z,99299.33
2023-04-08T17:13:23.494Z,99298.33
2023-04-08T17:15:05.796Z,99296.94
2023-04-08T17:16:40.088Z,99300.45
2023-04-08T17:18:20.954Z,99299.83
2023-04-08T17:19:56.734Z,99301.36
2023-04-08T17:21:42.609Z,99305.30
2023-04-08T17:23:27.569Z,99305.31
2023-04-08T17:25:21.145Z,99304.45
2023-04-08T17:27:01.608Z,99307.48
2023-04-08T17:28:35.373Z,99307.16
2023-04-08T17:30:20.825Z,99307.25
2023-04-08T17:31:54.725Z,99305.52
2023-04-08T17:33:30.042Z,99307.83
2023-04-08T17:35:05.519Z,99309.03
2023-04-08T17:36:39.823Z,99310.44
2023-04-08T17:38:20.600Z,99312.95
2023-04-08T17:40:15.796Z,99310.64
2023-04-08T17:41:49.137Z,99314.14
2023-04-08T17:43:25.174Z,99315.27
2023-04-08T17:44:58.426Z,99319.05
2023-04-08T17:46:22.335Z,99319.30
2023-04-08T17:48:09.416Z,99325.13
2023-04-08T17:49:44.096Z,99324.39
2023-04-08T17:51:19.754Z,99327.23
2023-04-08T17:52:51.096Z,99327.11
2023-04-08T17:54:26.687Z,99329.60
2023-04-08T17:56:13.776Z,99317.30
2023-04-08T17:57:54.861Z,99329.52
2023-04-08T17:59:40.602Z,99329.65
2023-04-08T18:01:02.335Z,99333.66
2023-04-08T18:02:32.295Z,99322.09
2023-04-08T18:04:17.901Z,99332.13
2023-04-08T18:06:12.826Z,99329.80
2023-04-08T18:08:07.806Z,99332.23
2023-04-08T18:09:48.912Z,99334.58
2023-04-08T18:11:30.089Z,99337.40
2023-04-08T18:13:07.989Z,99335.87
2023-04-08T18:14:45.699Z,99335.61
2023-04-08T18:16:18.881Z,99339.34
2023-04-08T18:18:05.221Z,99340.67
2023-04-08T18:19:38.976Z,99337.79
2023-04-08T18:21:33.796Z,99338.16
2023-04-08T18:23:00.169Z,99338.16
2023-04-08T18:24:45.866Z,99341.64
2023-04-08T18:26:14.916Z,99339.80
2023-04-08T18:27:43.681Z,99339.36
2023-04-08T18:29:18.838Z,99343.20
2023-04-08T18:30:43.344Z,99339.38
2023-04-08T18:32:25.752Z,99341.23
2023-04-08T18:33:48.211Z,99342.73
2023-04-08T18:35:10.098Z,99343.39
2023-04-08T18:36:44.351Z,99342.52
2023-04-08T18:38:13.689Z,99344.88
2023-04-08T18:39:50.127Z,99345.76
2023-04-08T18:41:34.806Z,99346.73
2023-04-08T18:43:15.252Z,99346.83
2023-04-08T18:44:49.184Z,99344.30
2023-04-08T18:46:25.141Z,99345.67
2023-04-08T18:48:06.111Z,99346.60
2023-04-08T18:49:38.808Z,99346.86
2023-04-08T18:51:12.822Z,99346.57
2023-04-08T18:52:49.029Z,99345.80
2023-04-08T18:54:25.925Z,99343.48
2023-04-08T18:55:49.802Z,99343.67
2023-04-08T18:57:11.606Z,99344.56
2023-04-08T18:58:48.448Z,99344.64
2023-04-08T19:00:22.791Z,99330.15
2023-04-08T19:02:02.737Z,99345.05
2023-04-08T19:03:36.150Z,99342.77
2023-04-08T19:04:59.746Z,99345.11
2023-04-08T19:06:35.873Z,99344.98
2023-04-08T19:08:09.403Z,99346.67
2023-04-08T19:09:43.551Z,99343.79
2023-04-08T19:11:28.672Z,99342.65
2023-04-08T19:12:51.387Z,99340.98
2023-04-08T19:14:27.610Z,99341.29
2023-04-08T19:16:01.799Z,99340.27
2023-04-08T19:17:24.338Z,99341.19
2023-04-08T19:18:48.375Z,99341.52
2023-04-08T19:20:33.816Z,99335.55
2023-04-08T19:22:07.511Z,99338.64
2023-04-08T19:23:32.538Z,99340.33
2023-04-08T19:24:55.271Z,99340.14
2023-04-08T19:26:24.783Z,99344.15